createdAt,value
2019-03-21T00:00:38.382Z,25.43
2019-03-21T00:03:09.201Z,28.63
2019-03-21T00:05:39.910Z,24.97
2019-03-21T00:08:11.919Z,22.10
2019-03-21T00:11:20.589Z,26.20
2019-03-21T00:13:52.840Z,24.40
2019-03-21T00:16:23.654Z,22.60
2019-03-21T00:18:54.500Z,28.67
2019-03-21T00:21:25.221Z,24.37
2019-03-21T00:23:55.928Z,30.17
2019-03-21T00:26:26.552Z,25.97
2019-03-21T00:28:57.278Z,27.70
2019-03-21T00:31:27.981Z,22.87
2019-03-21T00:33:59.015Z,24.97
2019-03-21T00:36:29.832Z,23.03
2019-03-21T00:39:00.531Z,30.27
2019-03-21T00:41:31.334Z,26.07
2019-03-21T00:44:01.958Z,22.20
2019-03-21T00:46:32.679Z,21.63
2019-03-21T00:49:03.324Z,27.00
2019-03-21T00:51:33.944Z,26.23
2019-03-21T00:54:05.911Z,24.60
2019-03-21T00:56:36.546Z,24.77
2019-03-21T00:59:07.198Z,20.47
2019-03-21T01:01:37.909Z,19.97
2019-03-21T01:04:08.698Z,21.03
2019-03-21T01:06:39.378Z,25.67
2019-03-21T01:09:11.394Z,26.20
2019-03-21T01:11:42.025Z,23.33
2019-03-21T01:14:12.822Z,24.77
2019-03-21T01:16:43.486Z,23.83
2019-03-21T01:19:14.242Z,26.33
2019-03-21T01:21:44.905Z,27.53
2019-03-21T01:24:16.303Z,26.13
2019-03-21T01:26:46.898Z,24.93
2019-03-21T01:29:17.807Z,21.20
2019-03-21T01:31:48.446Z,24.00
2019-03-21T01:34:19.078Z,29.90
2019-03-21T01:36:49.745Z,25.73
2019-03-21T01:39:20.487Z,30.10
2019-03-21T01:41:51.278Z,25.60
2019-03-21T01:44:21.870Z,24.67
2019-03-21T01:46:52.541Z,29.63
2019-03-21T01:49:23.206Z,27.90
2019-03-21T01:51:53.938Z,28.47
2019-03-21T01:54:24.854Z,25.13
2019-03-21T01:56:55.637Z,28.70
2019-03-21T01:59:26.371Z,29.53
2019-03-21T02:01:58.071Z,28.90
2019-03-21T02:04:28.669Z,23.50
2019-03-21T02:06:59.462Z,28.17
2019-03-21T02:09:30.222Z,25.17
2019-03-21T02:12:00.967Z,28.43
2019-03-21T02:14:31.713Z,30.17
2019-03-21T02:17:02.522Z,26.40
2019-03-21T02:19:33.209Z,29.10
2019-03-21T02:22:03.869Z,25.57
2019-03-21T02:24:34.653Z,30.50
2019-03-21T02:27:05.540Z,27.30
2019-03-21T02:29:36.228Z,27.70
2019-03-21T02:32:06.937Z,34.07
2019-03-21T02:34:37.717Z,20.87
2019-03-21T02:37:08.361Z,30.87
2019-03-21T02:39:39.367Z,30.13
2019-03-21T02:42:10.047Z,28.87
2019-03-21T02:44:40.839Z,26.57
2019-03-21T02:47:11.525Z,29.77
2019-03-21T02:49:42.172Z,34.00
2019-03-21T02:52:12.830Z,30.47
2019-03-21T02:54:43.454Z,28.60
2019-03-21T02:57:14.203Z,28.10
2019-03-21T02:59:44.907Z,30.30
2019-03-21T03:02:15.629Z,27.10
2019-03-21T03:04:46.378Z,29.27
2019-03-21T03:07:18.019Z,32.23
2019-03-21T03:09:48.595Z,27.07
2019-03-21T03:12:19.186Z,28.00
2019-03-21T03:14:50.102Z,27.87
2019-03-21T03:17:20.913Z,31.47
2019-03-21T03:19:51.504Z,28.90
2019-03-21T03:22:22.226Z,38.57
2019-03-21T03:24:52.863Z,33.80
2019-03-21T03:27:23.534Z,28.67
2019-03-21T03:29:54.215Z,34.80
2019-03-21T03:32:25.301Z,28.70
2019-03-21T03:34:55.918Z,30.23
2019-03-21T03:37:26.761Z,27.90
2019-03-21T03:39:57.583Z,31.27
2019-03-21T03:42:28.226Z,29.53
2019-03-21T03:44:58.958Z,28.43
2019-03-21T03:47:29.605Z,28.43
2019-03-21T03:50:00.487Z,34.60
2019-03-21T03:52:31.146Z,29.53
2019-03-21T03:55:02.009Z,26.57
2019-03-21T03:57:32.871Z,29.17
2019-03-21T04:00:03.677Z,26.30
2019-03-21T04:02:34.605Z,30.13
2019-03-21T04:05:05.686Z,28.60
2019-03-21T04:07:36.514Z,24.67
2019-03-21T04:10:09.624Z,27.37
2019-03-21T04:12:40.531Z,33.40
2019-03-21T04:15:11.630Z,29.27
2019-03-21T04:17:42.276Z,27.73
2019-03-21T04:20:14.963Z,31.27
2019-03-21T04:22:45.955Z,26.77
2019-03-21T04:25:19.679Z,30.63
2019-03-21T04:27:50.354Z,35.73
2019-03-21T04:30:21.140Z,32.83
2019-03-21T04:32:51.810Z,27.07
2019-03-21T04:35:22.388Z,32.70
2019-03-21T04:37:53.131Z,30.50
2019-03-21T04:40:23.806Z,33.10
2019-03-21T04:42:54.445Z,28.70
2019-03-21T04:45:25.117Z,31.47
2019-03-21T04:47:55.727Z,27.60
2019-03-21T04:50:26.925Z,27.63
2019-03-21T04:52:57.832Z,31.87
2019-03-21T04:55:28.751Z,32.33
2019-03-21T04:57:59.352Z,29.33
2019-03-21T05:00:31.542Z,28.07
2019-03-21T05:03:03.165Z,28.67
2019-03-21T05:05:34.770Z,32.17
2019-03-21T05:08:05.704Z,36.07
2019-03-21T05:10:36.554Z,33.37
2019-03-21T05:13:07.289Z,35.17
2019-03-21T05:15:39.398Z,29.70
2019-03-21T05:18:13.291Z,33.43
2019-03-21T05:20:43.934Z,31.47
2019-03-21T05:23:14.615Z,32.70
2019-03-21T05:25:45.266Z,32.60
2019-03-21T05:28:16.078Z,33.17
2019-03-21T05:30:58.549Z,32.13
2019-03-21T05:33:29.331Z,31.13
2019-03-21T05:36:00.157Z,33.63
2019-03-21T05:38:31.642Z,34.17
2019-03-21T05:41:02.298Z,33.73
2019-03-21T05:43:39.382Z,29.20
2019-03-21T05:46:10.044Z,33.43
2019-03-21T05:48:40.655Z,30.83
2019-03-21T05:51:11.369Z,35.43
2019-03-21T05:53:41.972Z,31.80
2019-03-21T05:56:12.894Z,31.27
2019-03-21T05:58:43.542Z,32.67
2019-03-21T06:01:14.387Z,32.00
2019-03-21T06:03:51.963Z,36.03
2019-03-21T06:07:03.649Z,35.80
2019-03-21T06:09:34.261Z,31.97
2019-03-21T06:12:05.068Z,38.10
2019-03-21T06:14:36.973Z,37.50
2019-03-21T06:17:07.710Z,30.70
2019-03-21T06:20:27.802Z,36.00
2019-03-21T06:23:25.957Z,30.90
2019-03-21T06:26:30.669Z,30.23
2019-03-21T06:29:02.445Z,32.17
2019-03-21T06:31:33.095Z,31.00
2019-03-21T06:34:04.009Z,29.40
2019-03-21T06:36:34.737Z,30.17
2019-03-21T06:39:07.898Z,31.77
2019-03-21T06:41:38.591Z,31.73
2019-03-21T06:44:09.290Z,37.30
2019-03-21T06:46:48.818Z,34.57
2019-03-21T06:49:12.302Z,38.13
2019-03-21T06:51:44.005Z,35.57
2019-03-21T06:54:14.706Z,36.53
2019-03-21T06:56:45.306Z,29.03
2019-03-21T06:59:18.703Z,30.87
2019-03-21T07:01:49.278Z,30.03
2019-03-21T07:04:19.882Z,35.17
2019-03-21T07:06:51.367Z,29.63
2019-03-21T07:09:21.982Z,30.47
2019-03-21T07:11:52.769Z,31.13
2019-03-21T07:14:23.441Z,31.63
2019-03-21T07:17:05.307Z,43.97
2019-03-21T07:19:36.030Z,43.33
2019-03-21T07:22:06.751Z,43.77
2019-03-21T07:24:37.489Z,33.07
2019-03-21T07:27:08.283Z,31.80
2019-03-21T07:29:38.856Z,33.40
2019-03-21T07:32:09.475Z,37.93
2019-03-21T07:34:40.128Z,34.47
2019-03-21T07:37:10.857Z,33.40
2019-03-21T07:39:41.449Z,34.47
2019-03-21T07:42:12.090Z,39.23
2019-03-21T07:44:42.740Z,33.57
2019-03-21T07:47:13.603Z,36.13
2019-03-21T07:49:44.531Z,32.83
2019-03-21T07:52:15.342Z,35.20
2019-03-21T07:54:45.942Z,35.27
2019-03-21T07:57:16.710Z,31.27
2019-03-21T07:59:47.501Z,28.73
2019-03-21T08:02:18.291Z,29.97
2019-03-21T08:04:48.890Z,32.07
2019-03-21T08:07:20.468Z,36.87
2019-03-21T08:09:51.139Z,37.83
2019-03-21T08:12:21.877Z,33.60
2019-03-21T08:14:52.645Z,34.87
2019-03-21T08:17:23.619Z,32.90
2019-03-21T08:19:54.267Z,31.03
2019-03-21T08:22:24.879Z,30.10
2019-03-21T08:24:55.768Z,32.83
2019-03-21T08:27:26.470Z,30.37
2019-03-21T08:29:57.113Z,27.70
2019-03-21T08:32:28.004Z,30.23
2019-03-21T08:34:58.730Z,29.40
2019-03-21T08:37:29.449Z,36.87
2019-03-21T08:40:00.325Z,27.67
2019-03-21T08:42:30.974Z,36.30
2019-03-21T08:45:01.678Z,27.13
2019-03-21T08:47:32.430Z,28.20
2019-03-21T08:50:03.185Z,24.93
2019-03-21T08:52:33.965Z,19.73
2019-03-21T08:55:04.902Z,24.77
2019-03-21T08:57:35.681Z,28.07
2019-03-21T09:00:07.042Z,27.50
2019-03-21T09:02:38.441Z,21.53
2019-03-21T09:05:09.181Z,25.30
2019-03-21T09:07:40.738Z,22.83
2019-03-21T09:10:11.590Z,23.87
2019-03-21T09:12:42.764Z,20.27
2019-03-21T09:15:13.658Z,20.17
2019-03-21T09:17:44.330Z,18.90
2019-03-21T09:20:14.989Z,19.87
2019-03-21T09:22:45.704Z,24.40
2019-03-21T09:25:16.558Z,20.93
2019-03-21T09:27:47.176Z,22.30
2019-03-21T09:30:18.078Z,21.53
2019-03-21T09:32:49.750Z,16.93
2019-03-21T09:35:20.406Z,21.80
2019-03-21T09:37:51.264Z,17.63
2019-03-21T09:40:22.035Z,26.70
2019-03-21T09:42:52.727Z,30.63
2019-03-21T09:45:23.317Z,17.77
2019-03-21T09:47:54.009Z,17.40
2019-03-21T09:50:29.332Z,19.00
2019-03-21T09:52:59.957Z,27.97
2019-03-21T09:55:30.683Z,20.43
2019-03-21T09:58:01.333Z,17.80
2019-03-21T10:00:35.753Z,18.87
2019-03-21T10:03:07.180Z,15.90
2019-03-21T10:05:37.954Z,22.10
2019-03-21T10:08:09.714Z,14.77
2019-03-21T10:10:40.346Z,14.33
2019-03-21T10:13:11.087Z,13.13
2019-03-21T10:15:41.751Z,9.20
2019-03-21T10:18:12.489Z,8.90
2019-03-21T10:20:43.085Z,9.17
2019-03-21T10:23:13.775Z,12.70
2019-03-21T10:25:44.474Z,12.43
2019-03-21T10:28:15.185Z,11.37
2019-03-21T10:30:45.874Z,17.23
2019-03-21T10:33:17.678Z,68.07
2019-03-21T10:35:48.710Z,19.97
2019-03-21T10:38:20.907Z,12.50
2019-03-21T10:40:52.170Z,16.07
2019-03-21T10:43:22.965Z,15.50
2019-03-21T10:45:53.822Z,13.93
2019-03-21T10:48:25.062Z,14.50
2019-03-21T10:50:56.447Z,16.27
2019-03-21T10:53:27.255Z,26.03
2019-03-21T10:55:57.944Z,16.73
2019-03-21T10:58:28.690Z,13.30
2019-03-21T11:00:59.523Z,18.50
2019-03-21T11:03:30.476Z,21.87
2019-03-21T11:06:01.170Z,22.37
2019-03-21T11:08:32.930Z,20.33
2019-03-21T11:11:03.545Z,20.80
2019-03-21T11:13:34.358Z,25.43
2019-03-21T11:16:05.070Z,17.73
2019-03-21T11:18:36.533Z,15.80
2019-03-21T11:21:07.639Z,16.93
2019-03-21T11:23:38.262Z,15.60
2019-03-21T11:26:08.933Z,13.73
2019-03-21T11:28:39.702Z,17.97
2019-03-21T11:31:10.451Z,18.10
2019-03-21T11:33:41.167Z,16.90
2019-03-21T11:36:11.721Z,15.77
2019-03-21T11:38:42.729Z,15.20
2019-03-21T11:41:13.521Z,15.87
2019-03-21T11:43:45.818Z,15.40
2019-03-21T11:46:16.817Z,15.40
2019-03-21T11:48:47.438Z,17.23
2019-03-21T11:51:18.118Z,19.07
2019-03-21T11:53:48.846Z,14.20
2019-03-21T11:56:19.559Z,15.57
2019-03-21T11:58:50.303Z,13.77
2019-03-21T12:01:20.932Z,15.50
2019-03-21T12:03:51.633Z,15.23
2019-03-21T12:06:22.295Z,13.73
2019-03-21T12:08:53.924Z,14.83
2019-03-21T12:11:24.546Z,16.70
2019-03-21T12:13:55.198Z,16.80
2019-03-21T12:16:25.959Z,19.63
2019-03-21T12:18:56.760Z,14.17
2019-03-21T12:21:27.459Z,13.57
2019-03-21T12:23:58.078Z,18.50
2019-03-21T12:26:28.850Z,16.30
2019-03-21T12:28:59.550Z,14.17
2019-03-21T12:31:30.117Z,14.23
2019-03-21T12:34:00.866Z,15.70
2019-03-21T12:36:31.477Z,12.43
2019-03-21T12:39:02.112Z,16.90
2019-03-21T12:41:34.043Z,16.33
2019-03-21T12:44:04.675Z,17.77
2019-03-21T12:46:35.603Z,10.60
2019-03-21T12:49:06.272Z,10.43
2019-03-21T12:51:37.047Z,13.67
2019-03-21T12:54:07.741Z,11.97
2019-03-21T12:56:38.546Z,10.60
2019-03-21T12:59:09.375Z,11.23
2019-03-21T13:01:40.099Z,13.60
2019-03-21T13:04:10.691Z,18.40
2019-03-21T13:06:41.345Z,24.17
2019-03-21T13:09:13.518Z,16.43
2019-03-21T13:11:44.134Z,12.93
2019-03-21T13:14:14.766Z,12.10
2019-03-21T13:16:45.579Z,13.97
2019-03-21T13:19:16.177Z,18.27
2019-03-21T13:21:46.845Z,13.67
2019-03-21T13:24:19.565Z,12.53
2019-03-21T13:26:49.945Z,15.67
2019-03-21T13:29:20.614Z,14.07
2019-03-21T13:31:51.200Z,15.10
2019-03-21T13:34:22.872Z,17.33
2019-03-21T13:36:53.634Z,13.07
2019-03-21T13:39:24.353Z,12.90
2019-03-21T13:41:55.060Z,12.07
2019-03-21T13:44:25.725Z,12.97
2019-03-21T13:46:56.411Z,15.10
2019-03-21T13:49:27.099Z,18.53
2019-03-21T13:51:57.742Z,17.30
2019-03-21T13:54:28.438Z,16.93
2019-03-21T13:56:59.111Z,13.87
2019-03-21T13:59:30.534Z,13.73
2019-03-21T14:02:01.339Z,18.87
2019-03-21T14:04:31.967Z,21.33
2019-03-21T14:07:02.898Z,16.37
2019-03-21T14:09:34.449Z,17.47
2019-03-21T14:12:05.327Z,13.97
2019-03-21T14:14:36.177Z,18.40
2019-03-21T14:17:06.886Z,21.83
2019-03-21T14:19:37.597Z,18.10
2019-03-21T14:22:08.341Z,33.73
2019-03-21T14:24:39.087Z,21.20
2019-03-21T14:27:09.845Z,19.60
2019-03-21T14:29:40.790Z,17.10
2019-03-21T14:32:11.467Z,17.90
2019-03-21T14:34:42.278Z,16.77
2019-03-21T14:37:12.990Z,14.67
2019-03-21T14:39:43.720Z,15.97
2019-03-21T14:42:14.649Z,14.70
2019-03-21T14:44:45.315Z,17.93
2019-03-21T14:47:16.023Z,18.80
2019-03-21T14:49:46.699Z,15.37
2019-03-21T14:52:17.493Z,19.00
2019-03-21T14:54:48.118Z,15.60
2019-03-21T14:57:19.022Z,18.17
2019-03-21T14:59:49.814Z,17.73
2019-03-21T15:02:20.390Z,20.80
2019-03-21T15:04:51.111Z,13.07
2019-03-21T15:07:21.738Z,16.73
2019-03-21T15:09:53.747Z,13.97
2019-03-21T15:12:24.366Z,19.43
2019-03-21T15:14:55.161Z,16.03
2019-03-21T15:17:25.906Z,23.80
2019-03-21T15:19:56.529Z,20.50
2019-03-21T15:22:27.136Z,14.77
2019-03-21T15:24:57.756Z,19.37
2019-03-21T15:27:28.367Z,16.43
2019-03-21T15:29:59.171Z,15.90
2019-03-21T15:32:29.974Z,21.60
2019-03-21T15:35:00.835Z,15.10
2019-03-21T15:37:31.541Z,18.83
2019-03-21T15:40:03.290Z,17.53
2019-03-21T15:42:34.086Z,14.10
2019-03-21T15:45:20.438Z,14.53
2019-03-21T15:47:38.242Z,13.13
2019-03-21T15:50:10.014Z,16.43
2019-03-21T15:52:40.899Z,18.67
2019-03-21T15:55:11.538Z,15.83
2019-03-21T15:57:43.306Z,14.13
2019-03-21T16:00:17.904Z,13.23
2019-03-21T16:02:48.606Z,21.83
2019-03-21T16:05:19.353Z,14.50
2019-03-21T16:07:49.933Z,15.87
2019-03-21T16:10:21.703Z,15.27
2019-03-21T16:12:52.401Z,19.60
2019-03-21T16:15:23.044Z,16.87
2019-03-21T16:17:53.813Z,19.80
2019-03-21T16:20:24.427Z,15.40
2019-03-21T16:22:55.138Z,13.77
2019-03-21T16:25:25.797Z,15.63
2019-03-21T16:27:56.504Z,17.33
2019-03-21T16:30:27.260Z,15.03
2019-03-21T16:32:57.925Z,15.83
2019-03-21T16:35:28.735Z,17.60
2019-03-21T16:37:59.586Z,17.87
2019-03-21T16:40:30.226Z,18.00
2019-03-21T16:43:01.179Z,13.70
2019-03-21T16:45:31.889Z,17.60
2019-03-21T16:48:02.582Z,20.07
2019-03-21T16:50:33.361Z,21.97
2019-03-21T16:53:04.156Z,17.80
2019-03-21T16:55:34.994Z,17.90
2019-03-21T16:58:05.836Z,19.73
2019-03-21T17:00:36.473Z,14.93
2019-03-21T17:03:07.282Z,20.23
2019-03-21T17:05:38.268Z,20.43
2019-03-21T17:08:11.583Z,17.53
2019-03-21T17:10:41.520Z,21.10
2019-03-21T17:13:12.294Z,20.60
2019-03-21T17:15:43.212Z,17.00
2019-03-21T17:18:13.862Z,19.33
2019-03-21T17:20:44.571Z,13.47
2019-03-21T17:23:16.454Z,13.77
2019-03-21T17:25:48.242Z,12.73
2019-03-21T17:28:18.993Z,19.10
2019-03-21T17:30:49.694Z,15.43
2019-03-21T17:33:20.419Z,17.47
2019-03-21T17:35:51.143Z,13.97
2019-03-21T17:38:21.854Z,17.07
2019-03-21T17:40:52.788Z,20.37
2019-03-21T17:43:23.566Z,17.33
2019-03-21T17:45:54.430Z,17.33
2019-03-21T17:48:25.281Z,20.30
2019-03-21T17:50:55.921Z,22.07
2019-03-21T17:53:27.631Z,20.60
2019-03-21T17:55:58.419Z,26.10
2019-03-21T17:58:29.102Z,33.53
2019-03-21T18:00:59.934Z,32.67
2019-03-21T18:03:30.573Z,27.47
2019-03-21T18:06:01.173Z,24.87
2019-03-21T18:08:31.901Z,19.03
2019-03-21T18:11:04.614Z,16.37
2019-03-21T18:13:35.628Z,18.93
2019-03-21T18:16:06.890Z,23.37
2019-03-21T18:18:38.578Z,18.30
2019-03-21T18:21:09.973Z,23.93
2019-03-21T18:23:40.806Z,19.60
2019-03-21T18:26:11.401Z,21.87
2019-03-21T18:28:42.095Z,18.60
2019-03-21T18:31:12.798Z,20.23
2019-03-21T18:33:43.386Z,17.70
2019-03-21T18:36:15.075Z,22.07
2019-03-21T18:38:57.427Z,22.67
2019-03-21T18:41:18.199Z,25.93
2019-03-21T18:43:48.930Z,22.90
2019-03-21T18:46:19.580Z,23.23
2019-03-21T18:48:50.448Z,17.10
2019-03-21T18:51:21.114Z,20.23
2019-03-21T18:53:52.056Z,19.80
2019-03-21T18:56:22.805Z,19.17
2019-03-21T18:58:53.560Z,16.23
2019-03-21T19:01:24.334Z,19.13
2019-03-21T19:03:55.181Z,16.70
2019-03-21T19:06:25.903Z,20.30
2019-03-21T19:08:56.846Z,21.47
2019-03-21T19:11:27.578Z,21.80
2019-03-21T19:13:59.559Z,26.37
2019-03-21T19:16:32.053Z,27.97
2019-03-21T19:19:02.729Z,32.83
2019-03-21T19:21:33.314Z,33.60
2019-03-21T19:24:04.030Z,26.27
2019-03-21T19:26:34.747Z,26.37
2019-03-21T19:29:05.461Z,33.33
2019-03-21T19:31:36.328Z,32.73
2019-03-21T19:34:07.222Z,34.70
2019-03-21T19:36:37.948Z,32.97
2019-03-21T19:39:10.216Z,33.63
2019-03-21T19:41:40.879Z,37.77
2019-03-21T19:44:12.741Z,37.17
2019-03-21T19:46:43.510Z,42.03
2019-03-21T19:49:15.264Z,41.80
2019-03-21T19:51:45.915Z,49.33
2019-03-21T19:54:16.755Z,46.03
2019-03-21T19:56:47.419Z,51.40
2019-03-21T19:59:18.191Z,50.73
2019-03-21T20:01:48.906Z,50.37
2019-03-21T20:04:19.531Z,51.83
2019-03-21T20:06:51.222Z,42.10
2019-03-21T20:09:21.959Z,43.13
2019-03-21T20:11:52.698Z,45.30
2019-03-21T20:14:23.411Z,47.33
2019-03-21T20:16:54.080Z,47.00
2019-03-21T20:19:24.901Z,46.70
2019-03-21T20:21:55.570Z,42.37
2019-03-21T20:24:26.278Z,43.00
2019-03-21T20:26:57.065Z,43.77
2019-03-21T20:29:27.690Z,44.37
2019-03-21T20:31:58.504Z,47.20
2019-03-21T20:34:29.299Z,46.67
2019-03-21T20:37:00.042Z,45.07
2019-03-21T20:39:30.698Z,42.50
2019-03-21T20:42:01.566Z,46.63
2019-03-21T20:44:32.166Z,48.37
2019-03-21T20:47:02.996Z,54.33
2019-03-21T20:49:33.843Z,44.87
2019-03-21T20:52:04.498Z,45.43
2019-03-21T20:54:35.240Z,48.77
2019-03-21T20:57:06.038Z,49.20
2019-03-21T20:59:36.677Z,47.07
2019-03-21T21:02:07.357Z,45.90
2019-03-21T21:04:38.034Z,41.67
2019-03-21T21:07:08.797Z,44.50
2019-03-21T21:09:39.412Z,46.53
2019-03-21T21:12:10.214Z,46.40
2019-03-21T21:14:40.849Z,45.97
2019-03-21T21:17:11.490Z,42.47
2019-03-21T21:19:42.223Z,40.90
2019-03-21T21:22:13.811Z,44.63
2019-03-21T21:24:44.559Z,44.90
2019-03-21T21:27:15.316Z,42.07
2019-03-21T21:29:46.030Z,48.17
2019-03-21T21:32:16.760Z,41.50
2019-03-21T21:34:47.561Z,44.27
2019-03-21T21:37:18.397Z,45.33
2019-03-21T21:39:49.160Z,47.27
2019-03-21T21:42:19.945Z,41.33
2019-03-21T21:44:50.743Z,46.07
2019-03-21T21:47:21.335Z,47.23
2019-03-21T21:49:52.003Z,45.37
2019-03-21T21:52:22.697Z,44.20
2019-03-21T21:54:53.354Z,44.00
2019-03-21T21:57:24.067Z,46.03
2019-03-21T21:59:54.692Z,42.90
2019-03-21T22:02:25.440Z,43.07
2019-03-21T22:04:56.130Z,44.20
2019-03-21T22:07:26.796Z,48.33
2019-03-21T22:09:57.694Z,44.30
2019-03-21T22:12:28.718Z,45.13
2019-03-21T22:14:59.322Z,43.50
2019-03-21T22:17:30.079Z,43.47
2019-03-21T22:20:00.717Z,44.83
2019-03-21T22:22:31.492Z,45.60
2019-03-21T22:25:02.084Z,42.57
2019-03-21T22:27:32.869Z,43.87
2019-03-21T22:30:04.441Z,41.37
2019-03-21T22:32:35.279Z,45.47
2019-03-21T22:35:06.543Z,42.20
2019-03-21T22:37:37.135Z,41.90
2019-03-21T22:40:08.839Z,47.40
2019-03-21T22:42:39.546Z,45.67
2019-03-21T22:45:11.245Z,41.50
2019-03-21T22:47:42.233Z,43.80
2019-03-21T22:50:14.902Z,43.13
2019-03-21T22:52:45.854Z,41.50
2019-03-21T22:55:16.538Z,43.27
2019-03-21T22:57:47.134Z,48.60
2019-03-21T23:00:20.314Z,41.23
2019-03-21T23:02:52.636Z,41.50
2019-03-21T23:05:23.678Z,40.07
2019-03-21T23:07:54.422Z,50.73
2019-03-21T23:10:25.240Z,48.03
2019-03-21T23:12:56.167Z,42.53
2019-03-21T23:15:26.998Z,44.63
2019-03-21T23:17:57.701Z,42.90
2019-03-21T23:20:28.462Z,43.43
2019-03-21T23:22:59.357Z,43.63
2019-03-21T23:25:30.121Z,43.13
2019-03-21T23:28:01.078Z,44.23
2019-03-21T23:30:33.464Z,42.60
2019-03-21T23:33:04.479Z,49.20
2019-03-21T23:35:35.411Z,43.60
2019-03-21T23:38:06.192Z,38.40
2019-03-21T23:40:37.038Z,43.27
2019-03-21T23:43:07.861Z,44.50
2019-03-21T23:45:38.902Z,42.33
2019-03-21T23:48:09.665Z,43.80
2019-03-21T23:50:40.599Z,44.17
2019-03-21T23:53:11.617Z,43.17
2019-03-21T23:55:42.413Z,44.83
2019-03-21T23:58:13.217Z,45.33
